Time;durP1;ratioP1;P1;durP2;ratioP2;P2;SDS_P1;SDS_P2;PMS_P1;PMS_P2;Temp;Humidity;BMP_temperature;BMP_pressure;BME280_temperature;BME280_humidity;BME280_pressure;Samples;Min_cycle;Max_cycle;Signal;HPM_P1;HPM_P2
2022/12/24 00:00:24;;;;;;;5.30;2.23;;;10.60;1.00;;;;;;5096651;28;20177;-43
2022/12/24 00:02:50;;;;;;;4.10;1.63;;;10.60;1.00;;;;;;5094882;28;20557;-43
2022/12/24 00:05:16;;;;;;;4.47;1.50;;;10.60;1.00;;;;;;5095379;28;20191;-42
2022/12/24 00:07:42;;;;;;;4.87;1.60;;;10.60;19.40;;;;;;5095225;28;20417;-44
2022/12/24 00:10:08;;;;;;;2.83;1.90;;;10.60;35.60;;;;;;5096325;28;20254;-42
2022/12/24 00:12:34;;;;;;;4.27;1.70;;;10.60;57.50;;;;;;5096026;28;20473;-42
2022/12/24 00:15:00;;;;;;;5.33;3.07;;;10.50;53.50;;;;;;5095934;28;20771;-45
2022/12/24 00:17:26;;;;;;;5.37;2.07;;;10.50;1.00;;;;;;5096941;28;20565;-44
2022/12/24 00:19:51;;;;;;;4.30;1.67;;;10.50;1.00;;;;;;5096554;28;20186;-43
2022/12/24 00:22:17;;;;;;;5.37;1.70;;;10.50;1.00;;;;;;5096487;28;20238;-42
2022/12/24 00:24:42;;;;;;;3.93;1.57;;;10.50;36.20;;;;;;5095030;28;20455;-44
2022/12/24 00:27:08;;;;;;;7.10;2.17;;;10.40;92.10;;;;;;5096154;28;20180;-41
2022/12/24 00:29:34;;;;;;;4.63;1.73;;;10.50;60.30;;;;;;5094953;28;20179;-43
2022/12/24 00:31:59;;;;;;;8.40;2.37;;;10.40;31.10;;;;;;5095613;28;20591;-43
2022/12/24 00:34:25;;;;;;;6.90;1.57;;;10.50;1.00;;;;;;5096715;28;20176;-43
2022/12/24 00:36:51;;;;;;;4.63;2.00;;;10.40;1.00;;;;;;5094577;28;20470;-44
2022/12/24 00:39:17;;;;;;;5.43;1.90;;;10.40;1.00;;;;;;5094356;28;20554;-42
2022/12/24 00:41:43;;;;;;;7.27;2.40;;;10.40;1.00;;;;;;5076502;28;20617;-43
2022/12/24 00:44:09;;;;;;;5.07;1.83;;;10.40;99.90;;;;;;5094797;28;20406;-45
2022/12/24 00:46:35;;;;;;;7.97;1.77;;;10.30;99.90;;;;;;5096002;28;20222;-41
2022/12/24 00:49:01;;;;;;;4.30;1.77;;;10.40;1.00;;;;;;5097111;28;20417;-42
2022/12/24 00:51:28;;;;;;;2.00;1.23;;;10.30;1.00;;;;;;5095892;28;20836;-44
2022/12/24 00:53:53;;;;;;;4.40;1.50;;;10.30;99.90;;;;;;5095603;28;20847;-42
2022/12/24 00:56:19;;;;;;;3.40;1.50;;;10.30;99.90;;;;;;5097489;28;20470;-41
2022/12/24 00:58:46;;;;;;;6.57;1.90;;;10.30;1.00;;;;;;5097804;28;20224;-45
2022/12/24 01:01:12;;;;;;;5.30;2.30;;;10.30;1.00;;;;;;5096641;28;20832;-42
2022/12/24 01:03:37;;;;;;;5.67;1.63;;;10.20;1.00;;;;;;5096126;28;20183;-42
2022/12/24 01:06:05;;;;;;;5.70;1.87;;;10.20;1.00;;;;;;5096961;28;20558;-43
2022/12/24 01:08:31;;;;;;;5.77;1.60;;;10.20;1.00;;;;;;5096855;28;20263;-41
2022/12/24 01:10:57;;;;;;;3.37;1.70;;;10.20;1.00;;;;;;5096291;28;20792;-43
2022/12/24 01:13:23;;;;;;;4.53;1.33;;;10.20;1.00;;;;;;5096058;28;20438;-42
2022/12/24 01:15:49;;;;;;;6.63;2.47;;;10.10;1.00;;;;;;5095562;28;20425;-42
2022/12/24 01:18:14;;;;;;;4.40;1.50;;;10.10;1.00;;;;;;5094170;28;20208;-41
2022/12/24 01:20:40;;;;;;;4.67;1.50;;;10.10;1.00;;;;;;5096032;28;20172;-42
2022/12/24 01:23:05;;;;;;;5.60;1.70;;;10.10;1.00;;;;;;5095912;28;20233;-42
2022/12/24 01:25:31;;;;;;;6.00;1.47;;;10.10;1.00;;;;;;5095086;28;20181;-43
2022/12/24 01:27:57;;;;;;;3.43;1.40;;;10.10;1.00;;;;;;5093594;28;20176;-41
2022/12/24 01:30:22;;;;;;;4.20;1.53;;;10.10;99.90;;;;;;5095261;28;20176;-45
2022/12/24 01:32:48;;;;;;;5.10;1.70;;;10.20;99.90;;;;;;5095653;28;20180;-42
2022/12/24 01:35:13;;;;;;;3.90;1.90;;;10.10;99.90;;;;;;5096121;28;20181;-44
2022/12/24 01:37:41;;;;;;;2.90;1.80;;;10.20;99.90;;;;;;5095385;28;20212;-41
2022/12/24 01:45:47;;;;;;;5.43;1.50;;;10.20;99.90;;;;;;5095620;28;20693;-42
2022/12/24 01:48:24;;;;;;;10.00;2.90;;;10.20;99.90;;;;;;5094832;28;20413;-42
2022/12/24 01:50:54;;;;;;;5.87;2.00;;;10.20;99.90;;;;;;5095268;28;20840;-43
2022/12/24 01:53:20;;;;;;;4.67;1.70;;;10.20;74.80;;;;;;5095147;28;20647;-44
2022/12/24 01:55:46;;;;;;;4.47;1.90;;;10.20;99.90;;;;;;5095287;28;20454;-43
2022/12/24 01:58:13;;;;;;;4.13;1.73;;;10.10;98.90;;;;;;5094552;28;20476;-46
2022/12/24 02:00:39;;;;;;;6.23;1.50;;;10.20;71.80;;;;;;5096476;28;20479;-43
2022/12/24 02:03:05;;;;;;;6.30;1.80;;;10.20;42.70;;;;;;5099194;28;20419;-41
2022/12/24 02:05:48;;;;;;;5.70;1.90;;;10.20;34.10;;;;;;5099031;28;20419;-40
2022/12/24 02:11:38;;;;;;;4.93;1.70;;;10.20;1.00;;;;;;5100766;28;20401;-41
2022/12/24 02:14:03;;;;;;;6.53;2.10;;;10.20;1.00;;;;;;5099833;28;20423;-42
2022/12/24 02:16:32;;;;;;;8.40;2.43;;;10.20;1.00;;;;;;5099722;28;20410;-42
2022/12/24 02:19:32;;;;;;;6.80;2.47;;;10.20;1.00;;;;;;5100943;28;20173;-41
2022/12/24 02:22:15;;;;;;;4.63;1.70;;;10.20;1.00;;;;;;5100002;28;20459;-41
2022/12/24 02:24:45;;;;;;;7.73;1.97;;;10.20;1.00;;;;;;5100512;28;20410;-41
2022/12/24 02:27:20;;;;;;;5.63;1.80;;;10.20;1.00;;;;;;5100560;28;20420;-43
2022/12/24 02:30:03;;;;;;;4.53;1.90;;;10.20;1.00;;;;;;5099729;28;20492;-41
2022/12/24 02:32:38;;;;;;;5.43;1.60;;;10.20;1.00;;;;;;5098869;28;20414;-43
2022/12/24 02:35:36;;;;;;;7.33;2.37;;;10.30;1.00;;;;;;5100452;28;20441;-41
2022/12/24 02:38:25;;;;;;;8.80;1.80;;;10.20;1.00;;;;;;5099769;28;20474;-44
2022/12/24 02:40:58;;;;;;;6.83;2.90;;;10.20;1.00;;;;;;5099670;28;20429;-45
2022/12/24 02:43:28;;;;;;;4.73;2.10;;;10.20;1.00;;;;;;5099539;28;20692;-41
2022/12/24 02:45:58;;;;;;;5.00;2.17;;;10.30;1.00;;;;;;5097942;28;20701;-44
2022/12/24 02:48:24;;;;;;;5.03;1.90;;;10.30;1.00;;;;;;5097469;28;20438;-42
2022/12/24 02:50:58;;;;;;;5.77;2.23;;;10.20;1.00;;;;;;5097364;28;20571;-42
2022/12/24 02:53:23;;;;;;;7.73;1.90;;;10.20;1.00;;;;;;5099133;28;20422;-40
2022/12/24 02:56:04;;;;;;;5.70;1.97;;;10.20;1.00;;;;;;5097938;28;20469;-41
2022/12/24 02:58:56;;;;;;;8.57;2.37;;;10.20;1.00;;;;;;5098472;28;20223;-42
2022/12/24 03:02:06;;;;;;;6.17;1.93;;;10.30;1.00;;;;;;5099097;28;20693;-44
2022/12/24 03:04:49;;;;;;;7.10;2.03;;;10.30;1.00;;;;;;5090369;28;20753;-43
2022/12/24 03:07:42;;;;;;;7.90;3.27;;;10.30;1.00;;;;;;5097080;28;20530;-45
2022/12/24 03:10:56;;;;;;;6.47;2.07;;;10.30;1.00;;;;;;5076498;28;20495;-43
2022/12/24 03:13:22;;;;;;;10.17;1.90;;;10.30;1.00;;;;;;5053771;28;20736;-44
2022/12/24 03:15:49;;;;;;;6.30;2.00;;;10.30;1.00;;;;;;5098548;28;20415;-44
2022/12/24 03:18:18;;;;;;;6.20;2.10;;;10.20;1.00;;;;;;5096652;28;20477;-43
2022/12/24 03:20:58;;;;;;;7.03;2.17;;;10.20;1.00;;;;;;5096481;28;20407;-42
2022/12/24 03:23:24;;;;;;;6.10;2.57;;;10.20;1.00;;;;;;5095870;28;20462;-45
2022/12/24 03:25:49;;;;;;;6.87;1.90;;;10.10;1.00;;;;;;5097487;28;20711;-43
2022/12/24 03:28:17;;;;;;;8.63;2.77;;;10.10;1.00;;;;;;5096448;28;20426;-42
2022/12/24 03:30:44;;;;;;;8.67;2.00;;;10.10;1.00;;;;;;5096412;28;20317;-43
2022/12/24 03:33:10;;;;;;;5.77;1.77;;;10.10;1.00;;;;;;5097688;28;20453;-42
2022/12/24 03:35:36;;;;;;;6.83;2.10;;;10.10;1.00;;;;;;5098000;28;20899;-42
2022/12/24 03:38:02;;;;;;;7.47;1.80;;;10.10;1.00;;;;;;5097999;28;20466;-44
2022/12/24 03:40:27;;;;;;;7.97;2.10;;;10.00;1.00;;;;;;5099097;28;20466;-44
2022/12/24 03:42:53;;;;;;;6.10;1.77;;;10.00;1.00;;;;;;5098374;28;20469;-45
2022/12/24 03:45:18;;;;;;;8.47;2.23;;;10.00;1.00;;;;;;5097444;28;20187;-44
2022/12/24 03:47:44;;;;;;;6.33;1.60;;;10.00;1.00;;;;;;5097674;28;20222;-42
2022/12/24 03:50:09;;;;;;;5.50;1.80;;;10.00;1.00;;;;;;5097412;28;20185;-41
2022/12/24 03:52:35;;;;;;;8.80;1.90;;;10.00;20.60;;;;;;5098426;28;20479;-42
2022/12/24 03:55:01;;;;;;;5.60;2.20;;;10.00;60.50;;;;;;5097668;28;20181;-42
2022/12/24 03:57:26;;;;;;;6.37;2.40;;;10.00;77.00;;;;;;5098170;28;20292;-41
2022/12/24 03:59:53;;;;;;;8.60;2.10;;;10.00;78.20;;;;;;5096962;28;20646;-42
2022/12/24 04:02:19;;;;;;;5.93;2.17;;;10.00;94.20;;;;;;5095083;28;20176;-43
2022/12/24 04:04:44;;;;;;;6.13;2.00;;;10.00;99.90;;;;;;5095349;28;20407;-43
2022/12/24 04:07:10;;;;;;;8.37;2.67;;;10.00;99.90;;;;;;5096127;28;20630;-44
2022/12/24 04:09:36;;;;;;;3.13;1.57;;;10.00;99.90;;;;;;5096366;28;20203;-41
2022/12/24 04:12:01;;;;;;;6.73;1.70;;;10.00;99.90;;;;;;5095925;28;20227;-41
2022/12/24 04:14:27;;;;;;;5.93;1.63;;;10.00;99.90;;;;;;5095567;28;20176;-41
2022/12/24 04:16:53;;;;;;;4.00;1.57;;;10.00;99.90;;;;;;5094625;28;20594;-42
2022/12/24 04:19:18;;;;;;;5.87;1.87;;;10.00;99.90;;;;;;5094592;28;20180;-41
2022/12/24 04:21:44;;;;;;;6.53;1.73;;;10.00;99.90;;;;;;5095965;28;20513;-42
2022/12/24 04:24:09;;;;;;;6.63;2.27;;;9.90;99.90;;;;;;5095888;28;20161;-42
2022/12/24 04:26:35;;;;;;;6.90;2.40;;;10.00;99.90;;;;;;5093729;28;20168;-42
2022/12/24 04:29:00;;;;;;;6.50;1.83;;;9.90;99.90;;;;;;5094179;28;20493;-44
2022/12/24 04:31:26;;;;;;;9.00;2.13;;;9.90;99.90;;;;;;5095029;28;20237;-43
2022/12/24 04:33:52;;;;;;;3.73;2.23;;;9.90;99.90;;;;;;5094051;28;20451;-46
2022/12/24 04:36:18;;;;;;;6.13;1.73;;;9.90;99.90;;;;;;5094862;28;20168;-44
2022/12/24 04:38:44;;;;;;;3.93;1.60;;;9.80;99.90;;;;;;5095216;28;20472;-41
2022/12/24 04:41:17;;;;;;;3.47;2.00;;;9.80;99.90;;;;;;5095727;28;20410;-43
2022/12/24 04:43:43;;;;;;;4.67;1.80;;;9.80;99.90;;;;;;5095692;28;20529;-43
2022/12/24 04:46:13;;;;;;;4.23;2.00;;;9.80;99.90;;;;;;5095980;28;20501;-42
2022/12/24 04:48:39;;;;;;;4.50;1.70;;;9.80;99.90;;;;;;5096964;28;20263;-44
2022/12/24 04:51:06;;;;;;;5.10;1.63;;;9.80;1.00;;;;;;5096784;28;20414;-42
2022/12/24 04:53:32;;;;;;;5.30;1.50;;;9.80;1.00;;;;;;5096695;28;20475;-43
2022/12/24 04:55:57;;;;;;;5.70;1.83;;;9.80;1.00;;;;;;5096223;28;20561;-45
2022/12/24 04:58:23;;;;;;;4.00;1.50;;;9.80;1.00;;;;;;5095581;28;20859;-43
2022/12/24 05:00:49;;;;;;;5.20;1.87;;;9.80;1.00;;;;;;5096558;28;20562;-43
2022/12/24 05:03:14;;;;;;;8.40;1.97;;;9.80;1.00;;;;;;5096624;28;20451;-43
2022/12/24 05:05:40;;;;;;;7.07;2.50;;;9.80;1.00;;;;;;5096498;28;20559;-42
2022/12/24 05:08:06;;;;;;;7.60;2.03;;;9.70;99.90;;;;;;5097249;28;20180;-43
2022/12/24 05:10:31;;;;;;;4.93;2.03;;;9.70;99.90;;;;;;5097329;28;20268;-44
2022/12/24 05:12:57;;;;;;;5.60;2.37;;;9.70;56.40;;;;;;5097912;28;20238;-42
2022/12/24 05:15:23;;;;;;;4.10;1.50;;;9.80;15.20;;;;;;5097736;28;20229;-41
2022/12/24 05:17:48;;;;;;;7.37;1.93;;;9.70;1.00;;;;;;5097428;28;20506;-44
2022/12/24 05:20:14;;;;;;;6.00;1.90;;;9.70;1.00;;;;;;5096490;28;20172;-44
2022/12/24 05:28:17;;;;;;;6.60;2.23;;;9.80;1.00;;;;;;5095630;28;20420;-44
2022/12/24 05:30:43;;;;;;;10.00;2.80;;;9.80;1.00;;;;;;5095977;28;20720;-42
2022/12/24 05:33:08;;;;;;;7.90;2.90;;;9.80;1.00;;;;;;5095917;28;20188;-43
2022/12/24 05:35:34;;;;;;;6.80;2.23;;;9.80;1.00;;;;;;5099154;28;20206;-45
2022/12/24 05:37:59;;;;;;;5.50;1.93;;;9.80;1.00;;;;;;5099418;28;20208;-45
2022/12/24 05:40:25;;;;;;;4.87;1.90;;;9.80;1.00;;;;;;5100145;28;20439;-43
2022/12/24 05:42:51;;;;;;;6.70;2.77;;;9.80;1.00;;;;;;5101613;28;20172;-45
2022/12/24 05:45:16;;;;;;;5.13;1.73;;;9.80;1.00;;;;;;5100752;28;20543;-43
2022/12/24 05:47:42;;;;;;;6.13;2.00;;;9.80;99.90;;;;;;5098715;28;20176;-43
2022/12/24 05:50:08;;;;;;;7.10;2.20;;;9.80;99.90;;;;;;5100991;28;20183;-41
2022/12/24 05:52:34;;;;;;;5.63;2.33;;;9.70;99.90;;;;;;5099369;28;20591;-40
2022/12/24 05:54:59;;;;;;;8.77;2.33;;;9.70;99.90;;;;;;5100264;28;20457;-44
2022/12/24 05:57:25;;;;;;;7.13;2.43;;;9.70;99.90;;;;;;5099135;28;20224;-42
2022/12/24 05:59:51;;;;;;;5.77;1.80;;;9.70;99.90;;;;;;5099898;28;20176;-42
2022/12/24 06:02:16;;;;;;;7.83;2.23;;;9.70;99.90;;;;;;5100008;28;20176;-42
2022/12/24 06:04:42;;;;;;;10.80;2.03;;;9.70;99.90;;;;;;5098963;28;20602;-45
2022/12/24 06:07:07;;;;;;;6.93;1.73;;;9.60;1.00;;;;;;5099168;28;20169;-43
2022/12/24 06:09:33;;;;;;;6.03;1.90;;;9.60;1.00;;;;;;5099496;28;20457;-45
2022/12/24 06:11:58;;;;;;;4.97;1.80;;;9.60;1.00;;;;;;5099744;28;20187;-45
2022/12/24 06:14:24;;;;;;;8.40;2.10;;;9.60;1.00;;;;;;5100216;28;20577;-43
2022/12/24 06:16:50;;;;;;;9.17;1.97;;;9.50;1.00;;;;;;5099696;28;20752;-43
2022/12/24 06:19:16;;;;;;;3.90;1.73;;;9.50;1.00;;;;;;5099973;28;20179;-42
2022/12/24 06:21:42;;;;;;;5.20;1.90;;;9.50;93.10;;;;;;5098421;28;20833;-41
2022/12/24 06:24:07;;;;;;;3.90;1.67;;;9.50;99.90;;;;;;5100301;28;20265;-43
2022/12/24 06:26:33;;;;;;;6.37;1.83;;;9.40;99.90;;;;;;5099481;28;20172;-44
2022/12/24 06:28:58;;;;;;;5.20;1.80;;;9.40;99.90;;;;;;5099529;28;20181;-41
2022/12/24 06:31:24;;;;;;;7.17;2.00;;;9.30;99.90;;;;;;5100364;28;20177;-44
2022/12/24 06:33:50;;;;;;;5.67;2.60;;;9.40;1.00;;;;;;5097705;28;20177;-43
2022/12/24 06:36:21;;;;;;;5.50;2.13;;;9.30;1.00;;;;;;5097580;28;20172;-41
2022/12/24 06:38:48;;;;;;;4.60;2.27;;;9.30;1.00;;;;;;5096251;28;20466;-40
2022/12/24 06:41:14;;;;;;;5.50;2.33;;;9.30;1.00;;;;;;5096368;28;20410;-42
2022/12/24 06:43:44;;;;;;;5.27;2.53;;;9.30;1.00;;;;;;5094855;28;20445;-42
2022/12/24 06:46:09;;;;;;;6.23;3.00;;;9.20;1.00;;;;;;5095591;28;20426;-44
2022/12/24 06:48:35;;;;;;;7.10;2.60;;;9.20;1.00;;;;;;5097101;28;20827;-43
2022/12/24 06:51:02;;;;;;;5.90;2.30;;;9.20;1.00;;;;;;5098346;28;20240;-44
2022/12/24 06:53:28;;;;;;;4.73;2.17;;;9.20;8.40;;;;;;5096858;28;20588;-43
2022/12/24 06:56:04;;;;;;;4.77;2.03;;;9.20;13.50;;;;;;5096819;28;20496;-44
2022/12/24 06:58:29;;;;;;;6.27;2.30;;;9.20;19.60;;;;;;5098358;28;20474;-43
2022/12/24 07:00:55;;;;;;;6.30;1.93;;;9.20;37.20;;;;;;5097100;28;20411;-41
2022/12/24 07:03:21;;;;;;;9.20;2.80;;;9.20;35.70;;;;;;5098013;28;20509;-42
2022/12/24 07:05:46;;;;;;;5.67;2.63;;;9.20;1.00;;;;;;5097743;28;20446;-40
2022/12/24 07:08:12;;;;;;;9.73;2.23;;;9.30;1.00;;;;;;5096064;28;20177;-42
2022/12/24 07:10:37;;;;;;;8.40;2.83;;;9.30;1.00;;;;;;5097656;28;20423;-41
2022/12/24 07:13:03;;;;;;;5.57;2.70;;;9.30;1.00;;;;;;5097244;28;20619;-40
2022/12/24 07:15:29;;;;;;;5.90;2.20;;;9.30;1.00;;;;;;5097151;28;20195;-41
2022/12/24 07:17:54;;;;;;;4.43;2.03;;;9.30;1.00;;;;;;5098696;28;20467;-42
2022/12/24 07:20:20;;;;;;;10.60;2.80;;;9.30;1.00;;;;;;5097618;28;20184;-41
2022/12/24 07:22:45;;;;;;;7.73;2.50;;;9.40;1.00;;;;;;5097909;28;20598;-43
2022/12/24 07:25:11;;;;;;;5.67;2.20;;;9.40;1.00;;;;;;5098590;28;20177;-42
2022/12/24 07:27:37;;;;;;;9.37;2.70;;;9.40;99.90;;;;;;5096040;28;20184;-44
2022/12/24 07:30:03;;;;;;;8.30;2.20;;;9.40;99.90;;;;;;5096356;28;20215;-42
2022/12/24 07:32:29;;;;;;;7.53;2.67;;;9.40;99.90;;;;;;5096279;28;20430;-45
2022/12/24 07:34:54;;;;;;;4.83;2.00;;;9.40;99.90;;;;;;5095490;28;20423;-43
2022/12/24 07:37:20;;;;;;;4.53;2.10;;;9.40;99.90;;;;;;5097154;28;20219;-43
2022/12/24 07:39:45;;;;;;;5.47;2.23;;;9.40;99.90;;;;;;5098247;28;20235;-42
2022/12/24 07:42:11;;;;;;;5.00;2.07;;;9.40;99.90;;;;;;5098450;28;20161;-44
2022/12/24 07:44:37;;;;;;;3.80;1.90;;;9.50;99.90;;;;;;5097427;28;20176;-43
2022/12/24 07:47:02;;;;;;;7.90;2.50;;;9.50;99.90;;;;;;5097331;28;20187;-41
2022/12/24 07:49:28;;;;;;;6.70;2.43;;;9.50;99.90;;;;;;5098409;28;20208;-42
2022/12/24 07:51:53;;;;;;;5.33;2.37;;;9.50;51.10;;;;;;5095563;28;20179;-42
2022/12/24 07:54:19;;;;;;;3.30;2.03;;;9.60;1.00;;;;;;5096831;28;20172;-42
2022/12/24 07:56:45;;;;;;;8.27;2.40;;;9.60;1.00;;;;;;5094326;28;20319;-42
2022/12/24 07:59:12;;;;;;;6.90;2.47;;;9.70;1.00;;;;;;5097609;28;20262;-42
2022/12/24 08:01:39;;;;;;;8.80;2.43;;;9.70;1.00;;;;;;5097574;28;20475;-42
2022/12/24 08:04:05;;;;;;;7.73;2.73;;;9.70;99.90;;;;;;5097781;28;20415;-43
2022/12/24 08:06:30;;;;;;;9.27;2.63;;;9.70;99.90;;;;;;5098052;28;20432;-44
2022/12/24 08:08:56;;;;;;;5.37;2.73;;;9.80;99.90;;;;;;5096415;28;20181;-42
2022/12/24 08:11:22;;;;;;;9.50;2.77;;;9.80;99.90;;;;;;5096043;28;20183;-43
2022/12/24 08:13:48;;;;;;;15.67;4.13;;;9.90;1.00;;;;;;5095274;28;20200;-41
2022/12/24 08:16:13;;;;;;;6.00;2.40;;;10.10;1.00;;;;;;5095888;28;20189;-41
2022/12/24 08:18:39;;;;;;;7.73;3.00;;;10.20;99.90;;;;;;5095794;28;20476;-44
2022/12/24 08:21:08;;;;;;;9.10;2.77;;;10.30;99.90;;;;;;5094619;28;20192;-43
2022/12/24 08:23:34;;;;;;;7.60;2.30;;;10.40;7.50;;;;;;5094533;28;20453;-44
2022/12/24 08:25:59;;;;;;;10.37;2.33;;;10.50;1.00;;;;;;5095883;28;20422;-45
2022/12/24 08:28:25;;;;;;;8.07;2.30;;;10.70;1.00;;;;;;5093082;28;20445;-44
2022/12/24 08:30:51;;;;;;;10.90;3.23;;;10.80;99.90;;;;;;5095078;28;20191;-42
2022/12/24 08:33:17;;;;;;;5.50;2.20;;;10.90;6.40;;;;;;5097009;28;20208;-42
2022/12/24 08:35:50;;;;;;;9.10;2.37;;;10.90;1.00;;;;;;5096179;28;20188;-41
2022/12/24 08:38:16;;;;;;;11.97;3.37;;;11.00;1.00;;;;;;5095058;28;20462;-43
2022/12/24 08:40:42;;;;;;;8.00;2.47;;;11.10;1.00;;;;;;5094884;28;20483;-43
2022/12/24 08:43:08;;;;;;;5.73;2.40;;;11.20;99.90;;;;;;5094855;28;20168;-42
2022/12/24 08:45:34;;;;;;;9.90;3.13;;;11.30;99.90;;;;;;5095317;28;20998;-42
2022/12/24 08:47:59;;;;;;;5.77;2.30;;;11.40;99.90;;;;;;5095279;28;20199;-42
2022/12/24 08:50:25;;;;;;;7.60;2.33;;;11.50;28.80;;;;;;5095734;28;21080;-42
2022/12/24 08:52:50;;;;;;;4.70;1.67;;;11.50;1.00;;;;;;5096598;28;20169;-45
2022/12/24 08:55:16;;;;;;;5.30;1.40;;;11.60;99.90;;;;;;5097373;28;20203;-44
2022/12/24 08:57:42;;;;;;;13.10;3.23;;;12.30;99.90;;;;;;5095562;28;20232;-45
2022/12/24 09:00:08;;;;;;;9.57;2.10;;;12.80;1.00;;;;;;5095408;28;20177;-44
2022/12/24 09:02:34;;;;;;;9.80;2.40;;;13.30;99.90;;;;;;5095088;28;20179;-44
2022/12/24 09:05:00;;;;;;;6.90;2.40;;;13.80;95.80;;;;;;5096290;28;20402;-44
2022/12/24 09:07:25;;;;;;;11.17;2.80;;;14.30;88.70;;;;;;5095276;28;20495;-42
2022/12/24 09:09:51;;;;;;;12.83;3.33;;;14.70;99.90;;;;;;5092678;28;20607;-41
2022/12/24 09:12:16;;;;;;;6.93;2.97;;;14.80;55.40;;;;;;5092819;28;20234;-43
2022/12/24 09:14:42;;;;;;;8.53;3.13;;;14.70;1.00;;;;;;5095425;28;20257;-43
2022/12/24 09:17:07;;;;;;;6.60;2.80;;;14.60;99.90;;;;;;5094162;28;20208;-42
2022/12/24 09:19:33;;;;;;;6.13;2.50;;;14.50;1.00;;;;;;5094563;28;20180;-42
2022/12/24 09:21:59;;;;;;;8.23;2.70;;;14.60;1.00;;;;;;5092301;28;20184;-41
2022/12/24 09:24:25;;;;;;;6.43;2.47;;;14.70;99.90;;;;;;5091068;28;20180;-45
2022/12/24 09:26:50;;;;;;;5.33;2.00;;;14.90;99.90;;;;;;5094988;28;20237;-41
2022/12/24 09:29:16;;;;;;;8.77;2.87;;;15.10;99.90;;;;;;5093725;28;20586;-44
2022/12/24 09:31:42;;;;;;;4.70;2.10;;;15.40;99.90;;;;;;5092995;28;20942;-43
2022/12/24 09:34:08;;;;;;;9.50;3.20;;;15.50;65.40;;;;;;5094631;28;20204;-41
2022/12/24 09:36:34;;;;;;;4.80;2.10;;;15.40;39.50;;;;;;5095649;28;20976;-41
2022/12/24 09:38:59;;;;;;;8.00;2.40;;;15.30;26.50;;;;;;5095776;28;20561;-41
2022/12/24 09:41:49;;;;;;;5.67;2.27;;;15.20;34.70;;;;;;5095452;28;20225;-43
2022/12/24 09:44:38;;;;;;;4.37;2.40;;;15.00;37.60;;;;;;5095609;28;20180;-43
2022/12/24 09:47:21;;;;;;;6.90;2.57;;;15.00;52.70;;;;;;5094854;28;20446;-41
2022/12/24 09:49:50;;;;;;;5.43;2.63;;;15.00;43.20;;;;;;5096314;28;20528;-42
2022/12/24 09:52:27;;;;;;;6.90;2.33;;;15.00;27.30;;;;;;5093864;28;20504;-43
2022/12/24 09:55:14;;;;;;;8.57;2.47;;;14.90;27.10;;;;;;5094058;28;20491;-42
2022/12/24 09:57:40;;;;;;;7.90;3.20;;;14.80;51.90;;;;;;5091114;28;20818;-43
2022/12/24 10:00:21;;;;;;;5.03;2.43;;;14.80;83.20;;;;;;5092862;28;20419;-43
2022/12/24 10:02:47;;;;;;;6.10;2.30;;;15.30;99.90;;;;;;5091819;28;20465;-42
2022/12/24 10:05:18;;;;;;;7.70;3.00;;;16.10;18.20;;;;;;5092314;28;20469;-41
2022/12/24 10:08:02;;;;;;;6.30;2.40;;;17.20;1.00;;;;;;5090319;28;20570;-43
2022/12/24 10:10:54;;;;;;;4.40;2.30;;;19.00;1.00;;;;;;5090447;28;20426;-43
2022/12/24 10:13:36;;;;;;;4.33;2.57;;;20.60;1.00;;;;;;5090098;28;20882;-42
2022/12/24 10:28:21;;;;;;;6.43;2.43;;;21.70;1.00;;;;;;5109616;27;20549;-43
2022/12/24 10:30:48;;;;;;;6.63;2.60;;;21.10;1.00;;;;;;5106598;28;20537;-45
2022/12/24 10:33:21;;;;;;;6.67;2.50;;;21.00;1.00;;;;;;5089108;28;20413;-43
2022/12/24 10:35:53;;;;;;;8.30;2.80;;;20.80;1.00;;;;;;5106071;28;20568;-45
2022/12/24 10:38:20;;;;;;;6.63;2.80;;;20.50;1.00;;;;;;5107785;28;20402;-43
2022/12/24 10:40:49;;;;;;;7.17;2.97;;;20.10;1.00;;;;;;5109611;28;20454;-43
2022/12/24 10:43:21;;;;;;;6.50;2.60;;;19.70;1.00;;;;;;5107355;28;20496;-42
2022/12/24 10:45:52;;;;;;;6.90;2.53;;;19.40;1.00;;;;;;5106398;28;20430;-41
2022/12/24 10:48:51;;;;;;;5.57;2.43;;;19.20;1.00;;;;;;5107039;28;20566;-41
2022/12/24 10:51:39;;;;;;;6.10;2.37;;;18.70;1.00;;;;;;5099577;28;20543;-43
2022/12/24 10:54:06;;;;;;;5.67;2.30;;;18.30;1.00;;;;;;5111002;28;20961;-40
2022/12/24 10:56:40;;;;;;;5.20;2.00;;;18.00;1.00;;;;;;5110999;28;20542;-42
2022/12/24 10:59:05;;;;;;;4.73;2.20;;;17.60;1.00;;;;;;5111697;28;20409;-42
2022/12/24 11:01:45;;;;;;;5.27;2.40;;;17.20;1.00;;;;;;5110152;28;20690;-44
2022/12/24 11:04:17;;;;;;;5.83;2.40;;;16.90;1.00;;;;;;5112434;28;20408;-43
2022/12/24 11:07:04;;;;;;;5.23;2.20;;;16.60;1.00;;;;;;5109909;28;20811;-41
2022/12/24 11:09:40;;;;;;;7.13;2.80;;;16.30;1.00;;;;;;5109706;28;20509;-43
2022/12/24 11:12:16;;;;;;;6.87;2.90;;;16.10;1.00;;;;;;5110156;28;20688;-43
2022/12/24 11:14:41;;;;;;;8.50;4.23;;;16.00;1.00;;;;;;5092639;28;20676;-43
2022/12/24 11:17:21;;;;;;;6.30;2.43;;;15.80;1.00;;;;;;5110569;28;20481;-43
2022/12/24 11:19:48;;;;;;;9.87;3.03;;;15.60;1.00;;;;;;5108837;28;20237;-41
2022/12/24 11:22:22;;;;;;;7.83;2.67;;;15.50;1.00;;;;;;5108930;28;20486;-42
2022/12/24 11:25:01;;;;;;;5.83;2.50;;;15.40;1.00;;;;;;5100572;28;20453;-42
2022/12/24 11:27:46;;;;;;;6.30;2.80;;;15.40;1.00;;;;;;5087294;28;20482;-42
2022/12/24 11:30:14;;;;;;;4.00;2.10;;;15.50;1.00;;;;;;5077799;28;20447;-42
2022/12/24 11:32:46;;;;;;;8.77;2.93;;;15.60;1.00;;;;;;5078708;28;20514;-42
2022/12/24 11:35:23;;;;;;;6.17;2.97;;;15.60;1.00;;;;;;5076481;28;20752;-45
2022/12/24 11:38:11;;;;;;;7.47;2.60;;;15.70;1.00;;;;;;5077582;28;20499;-43
2022/12/24 11:40:41;;;;;;;6.47;3.00;;;15.90;1.00;;;;;;5076355;28;20694;-46
2022/12/24 11:43:22;;;;;;;7.33;2.73;;;16.10;1.00;;;;;;5075996;28;20407;-45
2022/12/24 11:45:52;;;;;;;6.40;2.17;;;16.30;1.00;;;;;;5074350;28;20514;-43
2022/12/24 11:48:26;;;;;;;6.33;2.87;;;16.70;1.00;;;;;;5091806;28;20430;-42
2022/12/24 11:50:56;;;;;;;4.73;1.97;;;17.00;1.00;;;;;;5095767;28;20696;-43
2022/12/24 11:53:27;;;;;;;6.40;2.47;;;17.40;1.00;;;;;;5095147;28;20426;-42
2022/12/24 11:55:56;;;;;;;8.20;2.87;;;17.70;1.00;;;;;;5074667;28;20707;-43
2022/12/24 11:58:36;;;;;;;5.80;2.60;;;18.10;1.00;;;;;;5092644;28;20498;-44
2022/12/24 12:01:21;;;;;;;5.77;2.60;;;18.40;1.00;;;;;;5094260;28;20493;-42
2022/12/24 12:03:57;;;;;;;5.70;2.30;;;18.90;1.00;;;;;;5092568;28;20402;-44
2022/12/24 12:06:48;;;;;;;6.57;2.50;;;19.30;1.00;;;;;;5091973;28;20424;-40
2022/12/24 12:09:21;;;;;;;9.40;3.33;;;19.70;1.00;;;;;;5094565;28;20501;-45
2022/12/24 12:11:51;;;;;;;10.87;4.60;;;20.10;1.00;;;;;;5092170;28;20418;-47
2022/12/24 12:14:21;;;;;;;14.40;4.37;;;20.80;1.00;;;;;;5095032;28;20831;-47
2022/12/24 12:17:02;;;;;;;13.27;4.07;;;21.40;1.00;;;;;;5095436;28;20564;-46
2022/12/24 12:19:37;;;;;;;13.20;3.60;;;22.20;1.00;;;;;;5095230;28;20430;-48
2022/12/24 12:22:05;;;;;;;10.93;3.13;;;22.80;1.00;;;;;;5094559;28;20896;-46
2022/12/24 12:24:38;;;;;;;11.63;3.87;;;24.00;1.00;;;;;;5094597;28;20704;-43
2022/12/24 12:27:20;;;;;;;9.60;3.00;;;24.90;1.00;;;;;;5095549;28;20470;-45
2022/12/24 12:29:52;;;;;;;6.97;3.17;;;25.20;1.00;;;;;;5094408;28;20856;-46
2022/12/24 12:32:26;;;;;;;9.07;3.20;;;25.10;1.00;;;;;;5092699;28;20449;-41
2022/12/24 12:38:25;;;;;;;6.97;2.60;;;24.00;1.00;;;;;;5093241;28;20492;-41
2022/12/24 12:41:12;;;;;;;7.20;2.73;;;24.80;1.00;;;;;;5092133;28;20402;-41
2022/12/24 12:44:12;;;;;;;4.23;2.53;;;26.50;1.00;;;;;;5093531;28;20425;-41
2022/12/24 12:46:59;;;;;;;7.30;2.90;;;27.40;1.00;;;;;;5094093;28;20724;-41
2022/12/24 12:49:57;;;;;;;6.30;2.30;;;27.50;1.00;;;;;;5095399;28;20414;-42
2022/12/24 12:52:41;;;;;;;5.43;2.50;;;27.40;1.00;;;;;;5095000;28;20423;-44
2022/12/24 12:55:09;;;;;;;6.40;2.50;;;27.50;1.00;;;;;;5096018;28;20394;-42
2022/12/24 12:57:36;;;;;;;7.30;2.90;;;27.30;1.00;;;;;;5094058;28;20909;-42
2022/12/24 13:00:04;;;;;;;6.17;2.60;;;27.10;1.00;;;;;;5092301;28;20398;-43
2022/12/24 13:03:00;;;;;;;6.60;2.97;;;26.90;1.00;;;;;;5090225;28;20710;-42
2022/12/24 13:05:47;;;;;;;5.23;2.60;;;26.40;1.00;;;;;;5093140;28;20772;-42
2022/12/24 13:09:02;;;;;;;4.17;2.10;;;25.80;1.00;;;;;;5092183;28;20456;-42
2022/12/24 13:11:36;;;;;;;6.90;2.30;;;24.80;1.00;;;;;;5065430;28;20422;-44
2022/12/24 13:14:42;;;;;;;5.10;2.70;;;23.80;1.00;;;;;;5090791;28;20426;-44
2022/12/24 13:17:48;;;;;;;4.30;2.50;;;23.20;1.00;;;;;;5070260;28;20450;-44
2022/12/24 13:20:16;;;;;;;7.43;3.60;;;22.80;1.00;;;;;;5070359;28;20411;-42
2022/12/24 13:22:52;;;;;;;6.50;2.30;;;22.60;1.00;;;;;;5071087;28;20522;-43
2022/12/24 13:25:30;;;;;;;6.20;2.00;;;22.20;1.00;;;;;;5055421;28;20418;-43
2022/12/24 13:27:56;;;;;;;7.00;2.27;;;21.70;1.00;;;;;;5073628;28;20647;-42
2022/12/24 13:30:36;;;;;;;6.40;2.00;;;21.30;1.00;;;;;;5073968;28;20915;-46
2022/12/24 13:33:02;;;;;;;6.83;2.00;;;21.00;1.00;;;;;;5074969;28;20275;-42
2022/12/24 13:35:33;;;;;;;4.43;2.10;;;20.60;1.00;;;;;;5074682;28;20408;-43
2022/12/24 13:38:26;;;;;;;9.30;2.20;;;20.30;1.00;;;;;;5074685;28;20731;-41
2022/12/24 13:40:53;;;;;;;6.53;2.57;;;20.10;1.00;;;;;;5072536;28;20399;-42